createdAt,value
2017-12-12T20:17:00.854Z,98854
2017-12-12T20:19:16.913Z,98861
2017-12-12T20:21:29.272Z,98868
2017-12-12T20:23:37.156Z,98869
2017-12-12T20:25:51.044Z,98871
2017-12-12T20:28:11.200Z,98869
2017-12-12T20:30:30.533Z,98875
2017-12-12T20:32:39.390Z,98873
2017-12-12T20:34:51.846Z,98885
2017-12-12T20:37:01.331Z,98885
2017-12-12T20:39:09.684Z,98876
2017-12-12T20:41:18.439Z,98882
2017-12-12T20:43:26.606Z,98880
2017-12-12T20:45:33.488Z,98884
2017-12-12T20:47:40.649Z,98872
2017-12-12T20:49:48.426Z,98880
2017-12-12T20:51:56.137Z,98884
2017-12-12T20:54:04.608Z,98891
2017-12-12T20:56:12.713Z,98892
2017-12-12T20:58:20.345Z,98891
2017-12-12T21:00:27.695Z,98899
2017-12-12T21:02:40.701Z,98896
2017-12-12T21:04:48.583Z,98899
2017-12-12T21:07:03.360Z,98895
2017-12-12T21:09:12.325Z,98905
2017-12-12T21:11:27.450Z,98909
2017-12-12T21:13:37.955Z,98907
2017-12-12T21:15:51.494Z,98911
2017-12-12T21:18:02.372Z,98904
2017-12-12T21:20:15.204Z,98912
2017-12-12T21:22:31.943Z,98919
2017-12-12T21:25:02.521Z,98918
2017-12-12T21:27:17.182Z,98925
2017-12-12T21:29:36.290Z,98927
2017-12-12T21:32:03.639Z,98928
2017-12-12T21:36:39.681Z,98938
2017-12-12T21:41:22.439Z,98934
2017-12-12T21:43:36.128Z,98930
2017-12-12T21:45:45.749Z,98937
2017-12-12T21:47:56.751Z,98939
2017-12-12T21:50:13.487Z,98939
2017-12-12T21:52:35.283Z,98937
2017-12-12T21:54:58.787Z,98938
2017-12-12T21:57:15.239Z,98945
2017-12-12T21:59:28.386Z,98942
2017-12-12T22:01:45.670Z,98943
2017-12-12T22:04:00.770Z,98948
2017-12-12T22:06:14.722Z,98948
2017-12-12T22:08:23.157Z,98949
2017-12-12T22:10:34.019Z,98947
2017-12-12T22:12:43.666Z,98959
2017-12-12T22:15:07.800Z,98947
2017-12-12T22:17:20.422Z,98950
2017-12-12T22:19:30.783Z,98951
2017-12-12T22:21:44.313Z,98949
2017-12-12T22:23:56.224Z,98950
2017-12-12T22:26:16.162Z,98956
2017-12-12T22:28:26.633Z,98952
2017-12-12T22:30:41.134Z,98960
2017-12-12T22:32:51.942Z,98952
2017-12-12T22:35:01.255Z,98958
2017-12-12T22:37:10.274Z,98947
2017-12-12T22:39:21.187Z,98947
2017-12-12T22:41:31.337Z,98950
2017-12-12T22:43:40.790Z,98946
2017-12-12T22:45:53.580Z,98946
2017-12-12T22:48:04.643Z,98944
2017-12-12T22:50:14.760Z,98946
2017-12-12T22:54:41.672Z,98949
2017-12-12T22:56:59.766Z,98952
2017-12-12T22:59:10.057Z,98954
2017-12-12T23:01:23.088Z,98961
2017-12-12T23:03:31.773Z,98965
2017-12-12T23:08:09.765Z,98964
2017-12-12T23:10:17.813Z,98972
2017-12-12T23:12:27.691Z,98963
2017-12-12T23:14:38.379Z,98964
2017-12-12T23:16:48.208Z,98963
2017-12-12T23:18:54.745Z,98966
2017-12-12T23:21:04.866Z,98967
2017-12-12T23:23:14.671Z,98969
2017-12-12T23:25:23.067Z,98966
2017-12-12T23:27:31.969Z,98977
2017-12-12T23:29:38.598Z,98971
2017-12-12T23:31:47.418Z,98974
2017-12-12T23:33:55.027Z,98970
2017-12-12T23:36:03.915Z,98975
2017-12-12T23:38:10.401Z,98977
2017-12-12T23:40:19.975Z,98977
2017-12-12T23:42:28.305Z,98978
2017-12-12T23:44:35.084Z,98979
2017-12-12T23:46:42.884Z,98982
2017-12-12T23:48:49.394Z,98984
2017-12-12T23:50:57.267Z,98989
2017-12-12T23:53:04.451Z,98992
2017-12-12T23:55:11.100Z,98998
2017-12-12T23:57:17.996Z,98994
2017-12-12T23:59:28.120Z,98998
